sensor_id;sensor_type;location;lat;lon;timestamp;P1;durP1;ratioP1;P2;durP2;ratioP2
73940;SDS011;62294;48.554;10.202;2023-09-07T00:02:05;4.68;;;2.90;;
73940;SDS011;62294;48.554;10.202;2023-09-07T00:04:32;5.03;;;2.95;;
73940;SDS011;62294;48.554;10.202;2023-09-07T00:06:58;6.05;;;2.83;;
73940;SDS011;62294;48.554;10.202;2023-09-07T00:09:26;4.93;;;3.17;;
73940;SDS011;62294;48.554;10.202;2023-09-07T00:11:53;5.05;;;2.70;;
73940;SDS011;62294;48.554;10.202;2023-09-07T00:14:19;3.95;;;2.70;;
73940;SDS011;62294;48.554;10.202;2023-09-07T00:16:46;5.80;;;3.22;;
73940;SDS011;62294;48.554;10.202;2023-09-07T00:19:13;4.20;;;2.53;;
73940;SDS011;62294;48.554;10.202;2023-09-07T00:21:40;4.93;;;2.92;;
73940;SDS011;62294;48.554;10.202;2023-09-07T00:24:07;7.68;;;2.80;;
73940;SDS011;62294;48.554;10.202;2023-09-07T00:26:34;5.50;;;3.22;;
73940;SDS011;62294;48.554;10.202;2023-09-07T00:29:00;4.03;;;2.70;;
73940;SDS011;62294;48.554;10.202;2023-09-07T00:31:27;3.50;;;2.35;;
73940;SDS011;62294;48.554;10.202;2023-09-07T00:33:54;4.63;;;2.85;;
73940;SDS011;62294;48.554;10.202;2023-09-07T00:36:20;5.13;;;3.05;;
73940;SDS011;62294;48.554;10.202;2023-09-07T00:38:47;3.97;;;2.53;;
73940;SDS011;62294;48.554;10.202;2023-09-07T00:41:14;4.85;;;2.97;;
73940;SDS011;62294;48.554;10.202;2023-09-07T00:43:40;5.10;;;3.03;;
73940;SDS011;62294;48.554;10.202;2023-09-07T00:46:07;4.15;;;2.80;;
73940;SDS011;62294;48.554;10.202;2023-09-07T00:48:34;4.68;;;3.05;;
73940;SDS011;62294;48.554;10.202;2023-09-07T00:51:02;6.22;;;3.80;;
73940;SDS011;62294;48.554;10.202;2023-09-07T00:53:28;5.60;;;3.08;;
73940;SDS011;62294;48.554;10.202;2023-09-07T00:55:55;5.30;;;3.00;;
73940;SDS011;62294;48.554;10.202;2023-09-07T00:58:23;6.03;;;2.88;;
73940;SDS011;62294;48.554;10.202;2023-09-07T01:00:49;6.07;;;2.83;;
73940;SDS011;62294;48.554;10.202;2023-09-07T01:03:16;4.70;;;3.05;;
73940;SDS011;62294;48.554;10.202;2023-09-07T01:05:46;6.07;;;3.38;;
73940;SDS011;62294;48.554;10.202;2023-09-07T01:08:23;6.95;;;3.38;;
73940;SDS011;62294;48.554;10.202;2023-09-07T01:10:51;5.72;;;3.10;;
73940;SDS011;62294;48.554;10.202;2023-09-07T01:13:19;4.45;;;2.55;;
73940;SDS011;62294;48.554;10.202;2023-09-07T01:15:46;4.78;;;3.03;;
73940;SDS011;62294;48.554;10.202;2023-09-07T01:18:14;4.35;;;2.60;;
73940;SDS011;62294;48.554;10.202;2023-09-07T01:21:01;4.57;;;2.70;;
73940;SDS011;62294;48.554;10.202;2023-09-07T01:23:29;5.15;;;2.85;;
73940;SDS011;62294;48.554;10.202;2023-09-07T01:25:56;4.57;;;3.20;;
73940;SDS011;62294;48.554;10.202;2023-09-07T01:28:24;6.95;;;3.10;;
73940;SDS011;62294;48.554;10.202;2023-09-07T01:30:51;5.00;;;3.03;;
73940;SDS011;62294;48.554;10.202;2023-09-07T01:33:18;3.88;;;2.75;;
73940;SDS011;62294;48.554;10.202;2023-09-07T01:35:45;4.35;;;2.72;;
73940;SDS011;62294;48.554;10.202;2023-09-07T01:38:12;4.47;;;2.80;;
73940;SDS011;62294;48.554;10.202;2023-09-07T01:40:39;4.85;;;3.05;;
73940;SDS011;62294;48.554;10.202;2023-09-07T01:43:05;3.47;;;2.58;;
73940;SDS011;62294;48.554;10.202;2023-09-07T01:45:32;4.85;;;2.63;;
73940;SDS011;62294;48.554;10.202;2023-09-07T01:47:59;4.28;;;3.03;;
73940;SDS011;62294;48.554;10.202;2023-09-07T01:50:26;5.75;;;3.33;;
73940;SDS011;62294;48.554;10.202;2023-09-07T01:52:53;3.70;;;2.70;;
73940;SDS011;62294;48.554;10.202;2023-09-07T01:55:20;4.70;;;2.60;;
73940;SDS011;62294;48.554;10.202;2023-09-07T01:57:46;4.47;;;2.80;;
73940;SDS011;62294;48.554;10.202;2023-09-07T02:00:13;5.35;;;3.05;;
73940;SDS011;62294;48.554;10.202;2023-09-07T02:02:40;4.35;;;2.75;;
73940;SDS011;62294;48.554;10.202;2023-09-07T02:05:06;6.03;;;3.13;;
73940;SDS011;62294;48.554;10.202;2023-09-07T02:07:34;4.38;;;2.67;;
73940;SDS011;62294;48.554;10.202;2023-09-07T02:10:01;4.72;;;2.90;;
73940;SDS011;62294;48.554;10.202;2023-09-07T02:12:30;4.72;;;2.83;;
73940;SDS011;62294;48.554;10.202;2023-09-07T02:15:00;5.07;;;2.65;;
73940;SDS011;62294;48.554;10.202;2023-09-07T02:17:28;4.40;;;2.60;;
73940;SDS011;62294;48.554;10.202;2023-09-07T02:19:55;5.32;;;2.90;;
73940;SDS011;62294;48.554;10.202;2023-09-07T02:22:22;4.20;;;2.70;;
73940;SDS011;62294;48.554;10.202;2023-09-07T02:24:48;4.22;;;3.03;;
73940;SDS011;62294;48.554;10.202;2023-09-07T02:27:14;4.72;;;2.72;;
73940;SDS011;62294;48.554;10.202;2023-09-07T02:29:41;8.23;;;2.92;;
73940;SDS011;62294;48.554;10.202;2023-09-07T02:32:08;7.38;;;2.80;;
73940;SDS011;62294;48.554;10.202;2023-09-07T02:34:35;5.22;;;3.10;;
73940;SDS011;62294;48.554;10.202;2023-09-07T02:37:03;6.13;;;2.90;;
73940;SDS011;62294;48.554;10.202;2023-09-07T02:39:30;6.30;;;3.30;;
73940;SDS011;62294;48.554;10.202;2023-09-07T02:41:56;5.00;;;3.40;;
73940;SDS011;62294;48.554;10.202;2023-09-07T02:44:23;4.50;;;3.10;;
73940;SDS011;62294;48.554;10.202;2023-09-07T02:46:49;5.32;;;3.45;;
73940;SDS011;62294;48.554;10.202;2023-09-07T02:49:16;5.72;;;3.40;;
73940;SDS011;62294;48.554;10.202;2023-09-07T02:51:43;5.88;;;3.13;;
73940;SDS011;62294;48.554;10.202;2023-09-07T02:54:10;4.88;;;2.83;;
73940;SDS011;62294;48.554;10.202;2023-09-07T02:56:36;5.07;;;3.00;;
73940;SDS011;62294;48.554;10.202;2023-09-07T02:59:03;5.28;;;2.83;;
73940;SDS011;62294;48.554;10.202;2023-09-07T03:01:31;4.25;;;2.70;;
73940;SDS011;62294;48.554;10.202;2023-09-07T03:03:58;5.43;;;3.40;;
73940;SDS011;62294;48.554;10.202;2023-09-07T03:06:25;5.50;;;2.83;;
73940;SDS011;62294;48.554;10.202;2023-09-07T03:08:51;4.65;;;2.92;;
73940;SDS011;62294;48.554;10.202;2023-09-07T03:11:18;4.40;;;3.03;;
73940;SDS011;62294;48.554;10.202;2023-09-07T03:13:45;4.25;;;2.80;;
73940;SDS011;62294;48.554;10.202;2023-09-07T03:16:12;6.28;;;3.20;;
73940;SDS011;62294;48.554;10.202;2023-09-07T03:18:39;7.68;;;3.83;;
73940;SDS011;62294;48.554;10.202;2023-09-07T03:21:05;4.97;;;3.40;;
73940;SDS011;62294;48.554;10.202;2023-09-07T03:23:32;5.03;;;2.92;;
73940;SDS011;62294;48.554;10.202;2023-09-07T03:26:00;5.43;;;3.15;;
73940;SDS011;62294;48.554;10.202;2023-09-07T03:28:27;5.90;;;2.92;;
73940;SDS011;62294;48.554;10.202;2023-09-07T03:30:53;4.65;;;3.28;;
73940;SDS011;62294;48.554;10.202;2023-09-07T03:33:21;5.07;;;3.40;;
73940;SDS011;62294;48.554;10.202;2023-09-07T03:35:47;5.18;;;3.35;;
73940;SDS011;62294;48.554;10.202;2023-09-07T03:38:14;4.38;;;3.20;;
73940;SDS011;62294;48.554;10.202;2023-09-07T03:40:41;5.85;;;2.80;;
73940;SDS011;62294;48.554;10.202;2023-09-07T03:43:07;3.90;;;2.83;;
73940;SDS011;62294;48.554;10.202;2023-09-07T03:45:35;4.60;;;3.08;;
73940;SDS011;62294;48.554;10.202;2023-09-07T03:48:02;5.35;;;3.20;;
73940;SDS011;62294;48.554;10.202;2023-09-07T03:50:29;7.10;;;3.05;;
73940;SDS011;62294;48.554;10.202;2023-09-07T03:52:55;5.80;;;3.10;;
73940;SDS011;62294;48.554;10.202;2023-09-07T03:55:22;4.72;;;3.08;;
73940;SDS011;62294;48.554;10.202;2023-09-07T03:57:50;4.85;;;2.88;;
73940;SDS011;62294;48.554;10.202;2023-09-07T04:00:17;4.85;;;2.75;;
73940;SDS011;62294;48.554;10.202;2023-09-07T04:02:44;5.25;;;3.20;;
73940;SDS011;62294;48.554;10.202;2023-09-07T04:05:11;3.83;;;2.85;;
73940;SDS011;62294;48.554;10.202;2023-09-07T04:07:38;5.75;;;3.30;;
73940;SDS011;62294;48.554;10.202;2023-09-07T04:10:05;8.45;;;3.20;;
73940;SDS011;62294;48.554;10.202;2023-09-07T04:12:31;6.68;;;3.15;;
73940;SDS011;62294;48.554;10.202;2023-09-07T04:15:02;5.05;;;3.00;;
73940;SDS011;62294;48.554;10.202;2023-09-07T04:17:29;4.78;;;3.20;;
73940;SDS011;62294;48.554;10.202;2023-09-07T04:19:56;4.38;;;2.90;;
73940;SDS011;62294;48.554;10.202;2023-09-07T04:22:22;5.32;;;3.33;;
73940;SDS011;62294;48.554;10.202;2023-09-07T04:24:49;6.53;;;3.03;;
73940;SDS011;62294;48.554;10.202;2023-09-07T04:27:16;5.07;;;3.20;;
73940;SDS011;62294;48.554;10.202;2023-09-07T04:29:42;5.35;;;3.92;;
73940;SDS011;62294;48.554;10.202;2023-09-07T04:32:10;5.60;;;3.33;;
73940;SDS011;62294;48.554;10.202;2023-09-07T04:34:36;4.28;;;2.97;;
73940;SDS011;62294;48.554;10.202;2023-09-07T04:37:03;4.85;;;3.38;;
73940;SDS011;62294;48.554;10.202;2023-09-07T04:39:29;5.10;;;3.22;;
73940;SDS011;62294;48.554;10.202;2023-09-07T04:41:56;4.90;;;3.20;;
73940;SDS011;62294;48.554;10.202;2023-09-07T04:44:22;6.07;;;3.65;;
73940;SDS011;62294;48.554;10.202;2023-09-07T04:46:49;6.30;;;3.30;;
73940;SDS011;62294;48.554;10.202;2023-09-07T04:49:16;5.32;;;3.45;;
73940;SDS011;62294;48.554;10.202;2023-09-07T04:51:43;7.97;;;4.38;;
73940;SDS011;62294;48.554;10.202;2023-09-07T04:54:10;6.78;;;3.65;;
73940;SDS011;62294;48.554;10.202;2023-09-07T04:56:36;6.30;;;3.67;;
73940;SDS011;62294;48.554;10.202;2023-09-07T04:59:03;5.03;;;3.28;;
73940;SDS011;62294;48.554;10.202;2023-09-07T05:01:29;7.07;;;3.85;;
73940;SDS011;62294;48.554;10.202;2023-09-07T05:03:57;5.95;;;3.95;;
73940;SDS011;62294;48.554;10.202;2023-09-07T05:06:23;6.25;;;3.95;;
73940;SDS011;62294;48.554;10.202;2023-09-07T05:08:50;6.72;;;4.15;;
73940;SDS011;62294;48.554;10.202;2023-09-07T05:11:17;5.25;;;3.60;;
73940;SDS011;62294;48.554;10.202;2023-09-07T05:13:43;7.85;;;4.18;;
73940;SDS011;62294;48.554;10.202;2023-09-07T05:16:10;5.53;;;3.60;;
73940;SDS011;62294;48.554;10.202;2023-09-07T05:18:37;6.63;;;3.65;;
73940;SDS011;62294;48.554;10.202;2023-09-07T05:21:13;5.30;;;3.67;;
73940;SDS011;62294;48.554;10.202;2023-09-07T05:23:40;7.03;;;3.60;;
73940;SDS011;62294;48.554;10.202;2023-09-07T05:26:07;6.82;;;3.92;;
73940;SDS011;62294;48.554;10.202;2023-09-07T05:28:34;7.60;;;3.83;;
73940;SDS011;62294;48.554;10.202;2023-09-07T05:31:00;5.80;;;4.03;;
73940;SDS011;62294;48.554;10.202;2023-09-07T05:33:27;5.78;;;3.80;;
73940;SDS011;62294;48.554;10.202;2023-09-07T05:35:54;7.50;;;4.20;;
73940;SDS011;62294;48.554;10.202;2023-09-07T05:38:20;7.80;;;4.13;;
73940;SDS011;62294;48.554;10.202;2023-09-07T05:40:47;5.15;;;3.67;;
73940;SDS011;62294;48.554;10.202;2023-09-07T05:43:16;6.78;;;4.43;;
73940;SDS011;62294;48.554;10.202;2023-09-07T05:45:43;6.97;;;4.45;;
73940;SDS011;62294;48.554;10.202;2023-09-07T05:48:09;7.28;;;4.53;;
73940;SDS011;62294;48.554;10.202;2023-09-07T05:50:37;9.32;;;4.22;;
73940;SDS011;62294;48.554;10.202;2023-09-07T05:53:04;7.00;;;4.40;;
73940;SDS011;62294;48.554;10.202;2023-09-07T05:55:31;6.88;;;4.15;;
73940;SDS011;62294;48.554;10.202;2023-09-07T05:57:57;6.68;;;4.53;;
73940;SDS011;62294;48.554;10.202;2023-09-07T06:00:24;7.72;;;4.50;;
73940;SDS011;62294;48.554;10.202;2023-09-07T06:02:51;8.00;;;4.80;;
73940;SDS011;62294;48.554;10.202;2023-09-07T06:05:18;7.43;;;4.78;;
73940;SDS011;62294;48.554;10.202;2023-09-07T06:07:45;8.45;;;4.93;;
73940;SDS011;62294;48.554;10.202;2023-09-07T06:10:12;6.82;;;5.00;;
73940;SDS011;62294;48.554;10.202;2023-09-07T06:12:38;8.43;;;5.93;;
73940;SDS011;62294;48.554;10.202;2023-09-07T06:15:05;19.95;;;9.85;;
73940;SDS011;62294;48.554;10.202;2023-09-07T06:17:32;22.63;;;10.57;;
73940;SDS011;62294;48.554;10.202;2023-09-07T06:19:59;20.30;;;11.77;;
73940;SDS011;62294;48.554;10.202;2023-09-07T06:22:25;21.75;;;12.05;;
73940;SDS011;62294;48.554;10.202;2023-09-07T06:24:52;16.30;;;10.10;;
73940;SDS011;62294;48.554;10.202;2023-09-07T06:27:18;16.17;;;9.48;;
73940;SDS011;62294;48.554;10.202;2023-09-07T06:29:45;11.38;;;6.97;;
73940;SDS011;62294;48.554;10.202;2023-09-07T06:32:12;8.60;;;5.78;;
73940;SDS011;62294;48.554;10.202;2023-09-07T06:34:39;6.13;;;4.32;;
73940;SDS011;62294;48.554;10.202;2023-09-07T06:37:06;10.18;;;5.22;;
73940;SDS011;62294;48.554;10.202;2023-09-07T06:39:33;7.40;;;4.15;;
73940;SDS011;62294;48.554;10.202;2023-09-07T06:41:59;7.30;;;4.00;;
73940;SDS011;62294;48.554;10.202;2023-09-07T06:44:26;8.57;;;4.30;;
73940;SDS011;62294;48.554;10.202;2023-09-07T06:46:52;6.60;;;3.58;;
73940;SDS011;62294;48.554;10.202;2023-09-07T06:49:19;6.03;;;3.58;;
73940;SDS011;62294;48.554;10.202;2023-09-07T06:51:45;5.45;;;3.78;;
73940;SDS011;62294;48.554;10.202;2023-09-07T06:54:13;7.90;;;4.60;;
73940;SDS011;62294;48.554;10.202;2023-09-07T06:56:39;8.48;;;4.00;;
73940;SDS011;62294;48.554;10.202;2023-09-07T06:59:06;5.15;;;3.90;;
73940;SDS011;62294;48.554;10.202;2023-09-07T07:01:32;5.40;;;3.50;;
73940;SDS011;62294;48.554;10.202;2023-09-07T07:03:59;5.45;;;4.15;;
73940;SDS011;62294;48.554;10.202;2023-09-07T07:06:26;5.95;;;3.95;;
73940;SDS011;62294;48.554;10.202;2023-09-07T07:08:53;5.63;;;3.78;;
73940;SDS011;62294;48.554;10.202;2023-09-07T07:11:19;6.45;;;4.43;;
73940;SDS011;62294;48.554;10.202;2023-09-07T07:13:46;6.53;;;3.65;;
73940;SDS011;62294;48.554;10.202;2023-09-07T07:16:13;5.60;;;3.88;;
73940;SDS011;62294;48.554;10.202;2023-09-07T07:18:40;6.00;;;4.07;;
73940;SDS011;62294;48.554;10.202;2023-09-07T07:21:09;6.43;;;4.45;;
73940;SDS011;62294;48.554;10.202;2023-09-07T07:23:36;7.25;;;4.53;;
73940;SDS011;62294;48.554;10.202;2023-09-07T07:26:02;5.97;;;4.03;;
73940;SDS011;62294;48.554;10.202;2023-09-07T07:28:30;6.03;;;4.18;;
73940;SDS011;62294;48.554;10.202;2023-09-07T07:30:57;4.85;;;4.13;;
73940;SDS011;62294;48.554;10.202;2023-09-07T07:33:23;6.20;;;4.32;;
73940;SDS011;62294;48.554;10.202;2023-09-07T07:35:50;7.97;;;4.15;;
73940;SDS011;62294;48.554;10.202;2023-09-07T07:38:17;7.10;;;4.38;;
73940;SDS011;62294;48.554;10.202;2023-09-07T07:40:43;5.88;;;4.45;;
73940;SDS011;62294;48.554;10.202;2023-09-07T07:43:11;4.80;;;4.07;;
73940;SDS011;62294;48.554;10.202;2023-09-07T07:45:39;6.28;;;4.15;;
73940;SDS011;62294;48.554;10.202;2023-09-07T07:48:06;5.78;;;4.35;;
73940;SDS011;62294;48.554;10.202;2023-09-07T07:50:40;7.20;;;4.65;;
73940;SDS011;62294;48.554;10.202;2023-09-07T07:53:07;6.32;;;4.40;;
73940;SDS011;62294;48.554;10.202;2023-09-07T07:55:34;6.88;;;4.57;;
73940;SDS011;62294;48.554;10.202;2023-09-07T07:58:07;6.38;;;4.40;;
73940;SDS011;62294;48.554;10.202;2023-09-07T08:00:36;6.50;;;4.40;;
73940;SDS011;62294;48.554;10.202;2023-09-07T08:03:07;7.60;;;4.75;;
73940;SDS011;62294;48.554;10.202;2023-09-07T08:05:33;8.80;;;5.07;;
73940;SDS011;62294;48.554;10.202;2023-09-07T08:08:00;5.15;;;4.15;;
73940;SDS011;62294;48.554;10.202;2023-09-07T08:10:27;5.80;;;4.25;;
73940;SDS011;62294;48.554;10.202;2023-09-07T08:12:57;6.65;;;4.47;;
73940;SDS011;62294;48.554;10.202;2023-09-07T08:15:24;5.93;;;4.90;;
73940;SDS011;62294;48.554;10.202;2023-09-07T08:17:51;7.22;;;4.28;;
73940;SDS011;62294;48.554;10.202;2023-09-07T08:20:19;5.60;;;4.25;;
73940;SDS011;62294;48.554;10.202;2023-09-07T08:22:46;6.35;;;4.45;;
73940;SDS011;62294;48.554;10.202;2023-09-07T08:25:13;5.55;;;4.38;;
73940;SDS011;62294;48.554;10.202;2023-09-07T08:27:40;6.45;;;4.50;;
73940;SDS011;62294;48.554;10.202;2023-09-07T08:30:13;6.72;;;4.80;;
73940;SDS011;62294;48.554;10.202;2023-09-07T08:32:49;6.30;;;4.40;;
73940;SDS011;62294;48.554;10.202;2023-09-07T08:35:18;6.93;;;4.60;;
73940;SDS011;62294;48.554;10.202;2023-09-07T08:37:45;6.72;;;4.57;;
73940;SDS011;62294;48.554;10.202;2023-09-07T08:40:11;7.95;;;4.70;;
73940;SDS011;62294;48.554;10.202;2023-09-07T08:42:38;7.68;;;4.82;;
73940;SDS011;62294;48.554;10.202;2023-09-07T08:45:05;6.28;;;4.32;;
73940;SDS011;62294;48.554;10.202;2023-09-07T08:47:35;7.03;;;4.43;;
73940;SDS011;62294;48.554;10.202;2023-09-07T08:50:04;7.95;;;5.05;;
73940;SDS011;62294;48.554;10.202;2023-09-07T08:52:36;7.05;;;4.47;;
73940;SDS011;62294;48.554;10.202;2023-09-07T08:55:02;5.97;;;4.80;;
73940;SDS011;62294;48.554;10.202;2023-09-07T08:57:33;7.05;;;4.88;;
73940;SDS011;62294;48.554;10.202;2023-09-07T09:00:00;6.78;;;4.28;;
73940;SDS011;62294;48.554;10.202;2023-09-07T09:02:27;6.97;;;4.65;;
73940;SDS011;62294;48.554;10.202;2023-09-07T09:04:54;7.70;;;4.93;;
73940;SDS011;62294;48.554;10.202;2023-09-07T09:07:20;6.88;;;4.90;;
73940;SDS011;62294;48.554;10.202;2023-09-07T09:09:48;7.38;;;4.97;;
73940;SDS011;62294;48.554;10.202;2023-09-07T09:12:16;6.43;;;5.13;;
73940;SDS011;62294;48.554;10.202;2023-09-07T09:14:43;9.27;;;5.72;;
73940;SDS011;62294;48.554;10.202;2023-09-07T09:17:14;7.97;;;5.18;;
73940;SDS011;62294;48.554;10.202;2023-09-07T09:19:41;6.70;;;4.70;;
73940;SDS011;62294;48.554;10.202;2023-09-07T09:22:08;8.02;;;5.25;;
73940;SDS011;62294;48.554;10.202;2023-09-07T09:24:35;9.43;;;5.47;;
73940;SDS011;62294;48.554;10.202;2023-09-07T09:27:02;7.65;;;5.10;;
73940;SDS011;62294;48.554;10.202;2023-09-07T09:29:33;7.35;;;5.47;;
73940;SDS011;62294;48.554;10.202;2023-09-07T09:32:02;8.10;;;5.28;;
73940;SDS011;62294;48.554;10.202;2023-09-07T09:34:34;7.15;;;5.25;;
73940;SDS011;62294;48.554;10.202;2023-09-07T09:37:02;8.88;;;5.95;;
73940;SDS011;62294;48.554;10.202;2023-09-07T09:39:30;11.57;;;4.78;;
73940;SDS011;62294;48.554;10.202;2023-09-07T09:41:56;7.15;;;4.78;;
73940;SDS011;62294;48.554;10.202;2023-09-07T09:44:23;9.02;;;5.80;;
73940;SDS011;62294;48.554;10.202;2023-09-07T09:46:52;8.02;;;5.45;;
73940;SDS011;62294;48.554;10.202;2023-09-07T09:49:21;7.43;;;5.40;;
73940;SDS011;62294;48.554;10.202;2023-09-07T09:51:51;6.50;;;5.03;;
73940;SDS011;62294;48.554;10.202;2023-09-07T09:54:18;8.85;;;5.90;;
73940;SDS011;62294;48.554;10.202;2023-09-07T09:56:45;7.20;;;5.35;;
73940;SDS011;62294;48.554;10.202;2023-09-07T09:59:12;7.22;;;5.30;;
73940;SDS011;62294;48.554;10.202;2023-09-07T10:01:41;8.25;;;5.72;;
73940;SDS011;62294;48.554;10.202;2023-09-07T10:04:11;7.78;;;5.15;;
73940;SDS011;62294;48.554;10.202;2023-09-07T10:06:50;7.20;;;5.53;;
73940;SDS011;62294;48.554;10.202;2023-09-07T10:09:20;8.05;;;5.47;;
73940;SDS011;62294;48.554;10.202;2023-09-07T10:11:53;5.72;;;4.85;;
73940;SDS011;62294;48.554;10.202;2023-09-07T10:14:20;8.98;;;5.65;;
73940;SDS011;62294;48.554;10.202;2023-09-07T10:16:53;7.97;;;5.20;;
73940;SDS011;62294;48.554;10.202;2023-09-07T10:19:25;9.23;;;5.15;;
73940;SDS011;62294;48.554;10.202;2023-09-07T10:21:53;9.38;;;4.97;;
73940;SDS011;62294;48.554;10.202;2023-09-07T10:24:27;7.60;;;5.13;;
73940;SDS011;62294;48.554;10.202;2023-09-07T10:27:02;6.93;;;5.22;;
73940;SDS011;62294;48.554;10.202;2023-09-07T10:29:43;8.80;;;4.93;;
73940;SDS011;62294;48.554;10.202;2023-09-07T10:32:11;7.13;;;4.82;;
73940;SDS011;62294;48.554;10.202;2023-09-07T10:37:12;7.13;;;5.32;;
73940;SDS011;62294;48.554;10.202;2023-09-07T10:39:40;7.15;;;4.55;;
73940;SDS011;62294;48.554;10.202;2023-09-07T10:42:21;6.68;;;4.68;;
73940;SDS011;62294;48.554;10.202;2023-09-07T10:44:49;6.78;;;4.88;;
73940;SDS011;62294;48.554;10.202;2023-09-07T10:47:15;7.10;;;4.53;;
73940;SDS011;62294;48.554;10.202;2023-09-07T10:49:43;6.40;;;4.57;;
73940;SDS011;62294;48.554;10.202;2023-09-07T10:52:10;6.88;;;5.13;;
73940;SDS011;62294;48.554;10.202;2023-09-07T10:54:36;6.95;;;4.28;;
73940;SDS011;62294;48.554;10.202;2023-09-07T10:57:09;6.05;;;4.68;;
73940;SDS011;62294;48.554;10.202;2023-09-07T10:59:37;6.55;;;4.78;;
73940;SDS011;62294;48.554;10.202;2023-09-07T11:02:04;6.35;;;4.35;;
73940;SDS011;62294;48.554;10.202;2023-09-07T11:04:32;6.55;;;4.57;;
73940;SDS011;62294;48.554;10.202;2023-09-07T11:06:59;7.53;;;4.80;;
73940;SDS011;62294;48.554;10.202;2023-09-07T11:09:26;5.63;;;4.60;;
73940;SDS011;62294;48.554;10.202;2023-09-07T11:11:53;7.65;;;4.68;;
73940;SDS011;62294;48.554;10.202;2023-09-07T11:14:21;8.48;;;5.35;;
73940;SDS011;62294;48.554;10.202;2023-09-07T11:16:48;7.65;;;4.38;;
73940;SDS011;62294;48.554;10.202;2023-09-07T11:19:15;6.43;;;4.35;;
73940;SDS011;62294;48.554;10.202;2023-09-07T11:21:41;6.50;;;4.82;;
73940;SDS011;62294;48.554;10.202;2023-09-07T11:24:09;5.13;;;4.18;;
73940;SDS011;62294;48.554;10.202;2023-09-07T11:26:45;5.10;;;4.07;;
73940;SDS011;62294;48.554;10.202;2023-09-07T11:29:13;6.53;;;4.38;;
73940;SDS011;62294;48.554;10.202;2023-09-07T11:31:41;5.28;;;4.18;;
73940;SDS011;62294;48.554;10.202;2023-09-07T11:34:13;5.32;;;4.20;;
73940;SDS011;62294;48.554;10.202;2023-09-07T11:36:41;6.32;;;4.55;;
73940;SDS011;62294;48.554;10.202;2023-09-07T11:39:08;6.32;;;4.50;;
73940;SDS011;62294;48.554;10.202;2023-09-07T11:41:42;7.70;;;4.63;;
73940;SDS011;62294;48.554;10.202;2023-09-07T11:44:10;5.28;;;3.90;;
73940;SDS011;62294;48.554;10.202;2023-09-07T11:46:37;6.15;;;4.20;;
73940;SDS011;62294;48.554;10.202;2023-09-07T11:49:04;6.47;;;4.60;;
73940;SDS011;62294;48.554;10.202;2023-09-07T11:51:36;6.05;;;4.75;;
73940;SDS011;62294;48.554;10.202;2023-09-07T11:54:03;6.82;;;4.60;;
73940;SDS011;62294;48.554;10.202;2023-09-07T11:56:30;6.15;;;4.55;;
73940;SDS011;62294;48.554;10.202;2023-09-07T11:58:57;5.80;;;4.60;;
73940;SDS011;62294;48.554;10.202;2023-09-07T12:01:23;6.65;;;4.53;;
73940;SDS011;62294;48.554;10.202;2023-09-07T12:03:50;5.03;;;4.03;;
73940;SDS011;62294;48.554;10.202;2023-09-07T12:06:17;7.40;;;4.70;;
73940;SDS011;62294;48.554;10.202;2023-09-07T12:08:57;7.57;;;5.22;;
73940;SDS011;62294;48.554;10.202;2023-09-07T12:11:27;6.43;;;3.92;;
73940;SDS011;62294;48.554;10.202;2023-09-07T12:13:54;6.45;;;3.65;;
73940;SDS011;62294;48.554;10.202;2023-09-07T12:16:21;7.15;;;4.03;;
73940;SDS011;62294;48.554;10.202;2023-09-07T12:18:48;8.05;;;4.50;;
73940;SDS011;62294;48.554;10.202;2023-09-07T12:21:15;6.13;;;4.65;;
73940;SDS011;62294;48.554;10.202;2023-09-07T12:23:41;7.57;;;4.88;;
73940;SDS011;62294;48.554;10.202;2023-09-07T12:26:08;6.30;;;4.50;;
73940;SDS011;62294;48.554;10.202;2023-09-07T12:28:35;7.10;;;4.40;;
73940;SDS011;62294;48.554;10.202;2023-09-07T12:31:02;4.85;;;4.05;;
73940;SDS011;62294;48.554;10.202;2023-09-07T12:33:30;6.47;;;4.70;;
73940;SDS011;62294;48.554;10.202;2023-09-07T12:35:59;6.72;;;4.47;;
73940;SDS011;62294;48.554;10.202;2023-09-07T12:38:26;8.43;;;5.10;;
73940;SDS011;62294;48.554;10.202;2023-09-07T12:40:54;7.22;;;4.60;;
73940;SDS011;62294;48.554;10.202;2023-09-07T12:43:22;5.95;;;4.53;;
73940;SDS011;62294;48.554;10.202;2023-09-07T12:45:51;6.57;;;4.28;;
73940;SDS011;62294;48.554;10.202;2023-09-07T12:48:19;5.85;;;4.25;;
73940;SDS011;62294;48.554;10.202;2023-09-07T12:50:46;6.93;;;4.35;;
73940;SDS011;62294;48.554;10.202;2023-09-07T12:53:13;7.20;;;5.25;;
73940;SDS011;62294;48.554;10.202;2023-09-07T12:55:39;6.43;;;4.53;;
73940;SDS011;62294;48.554;10.202;2023-09-07T12:58:05;6.93;;;4.50;;
73940;SDS011;62294;48.554;10.202;2023-09-07T13:00:32;5.30;;;4.18;;
73940;SDS011;62294;48.554;10.202;2023-09-07T13:02:59;6.63;;;4.13;;
73940;SDS011;62294;48.554;10.202;2023-09-07T13:05:26;6.45;;;4.53;;
73940;SDS011;62294;48.554;10.202;2023-09-07T13:07:52;6.55;;;4.25;;
73940;SDS011;62294;48.554;10.202;2023-09-07T13:10:20;6.55;;;4.35;;
73940;SDS011;62294;48.554;10.202;2023-09-07T13:12:47;8.27;;;5.05;;
73940;SDS011;62294;48.554;10.202;2023-09-07T13:15:13;5.90;;;4.53;;
73940;SDS011;62294;48.554;10.202;2023-09-07T13:17:40;7.38;;;4.38;;
73940;SDS011;62294;48.554;10.202;2023-09-07T13:20:07;6.30;;;4.07;;
73940;SDS011;62294;48.554;10.202;2023-09-07T13:22:34;7.15;;;4.60;;
73940;SDS011;62294;48.554;10.202;2023-09-07T13:25:00;6.28;;;4.32;;
73940;SDS011;62294;48.554;10.202;2023-09-07T13:27:27;10.90;;;4.80;;
73940;SDS011;62294;48.554;10.202;2023-09-07T13:29:54;6.18;;;3.90;;
73940;SDS011;62294;48.554;10.202;2023-09-07T13:32:22;5.13;;;3.67;;
73940;SDS011;62294;48.554;10.202;2023-09-07T13:34:49;4.60;;;3.40;;
73940;SDS011;62294;48.554;10.202;2023-09-07T13:37:16;5.28;;;4.07;;
73940;SDS011;62294;48.554;10.202;2023-09-07T13:39:42;7.93;;;4.28;;
73940;SDS011;62294;48.554;10.202;2023-09-07T13:42:08;7.10;;;4.40;;
73940;SDS011;62294;48.554;10.202;2023-09-07T13:44:35;7.25;;;4.40;;
73940;SDS011;62294;48.554;10.202;2023-09-07T13:47:02;5.47;;;3.97;;
73940;SDS011;62294;48.554;10.202;2023-09-07T13:49:28;6.72;;;3.95;;
73940;SDS011;62294;48.554;10.202;2023-09-07T13:51:55;6.72;;;3.88;;
73940;SDS011;62294;48.554;10.202;2023-09-07T13:54:22;6.05;;;3.88;;
73940;SDS011;62294;48.554;10.202;2023-09-07T13:56:48;6.90;;;4.10;;
73940;SDS011;62294;48.554;10.202;2023-09-07T13:59:15;5.07;;;3.65;;
73940;SDS011;62294;48.554;10.202;2023-09-07T14:01:41;5.60;;;3.83;;
73940;SDS011;62294;48.554;10.202;2023-09-07T14:04:08;6.63;;;3.35;;
73940;SDS011;62294;48.554;10.202;2023-09-07T14:06:35;7.68;;;3.85;;
73940;SDS011;62294;48.554;10.202;2023-09-07T14:09:01;5.13;;;3.65;;
73940;SDS011;62294;48.554;10.202;2023-09-07T14:11:28;5.72;;;3.90;;
73940;SDS011;62294;48.554;10.202;2023-09-07T14:13:54;7.93;;;3.60;;
73940;SDS011;62294;48.554;10.202;2023-09-07T14:16:21;6.28;;;3.55;;
73940;SDS011;62294;48.554;10.202;2023-09-07T14:18:48;4.55;;;3.47;;
73940;SDS011;62294;48.554;10.202;2023-09-07T14:21:15;6.47;;;3.65;;
73940;SDS011;62294;48.554;10.202;2023-09-07T14:23:43;6.60;;;3.33;;
73940;SDS011;62294;48.554;10.202;2023-09-07T14:26:10;5.95;;;3.40;;
73940;SDS011;62294;48.554;10.202;2023-09-07T14:28:37;5.03;;;3.47;;
73940;SDS011;62294;48.554;10.202;2023-09-07T14:31:06;6.10;;;4.03;;
73940;SDS011;62294;48.554;10.202;2023-09-07T14:33:34;7.60;;;3.53;;
73940;SDS011;62294;48.554;10.202;2023-09-07T14:36:05;6.22;;;3.50;;
73940;SDS011;62294;48.554;10.202;2023-09-07T14:38:33;5.32;;;3.40;;